This is the latest recevied weather packets stored in our database for station/object dl1wer-13. If no packets are shown the sender has not sent any weather packets the latest 10 day(s).
| Time | Temp. | Humidity | Pressure | Rain* | Wind** | Luminosity | Snow |
|---|---|---|---|---|---|---|---|
| 1777926622 | 16.67° C | 62% | 1038.3 hPa | 0 mm | - | - | - |
| 1777926021 | 16.67° C | 61% | 1038.4 hPa | 0 mm | - | - | - |
| 1777925421 | 17.22° C | 60% | 1038.5 hPa | 0 mm | - | - | - |
| 1777924821 | 17.78° C | 54% | 1038.5 hPa | 0 mm | - | - | - |
| 1777924221 | 17.78° C | 54% | 1038.7 hPa | 0 mm | - | - | - |
| 1777923620 | 18.33° C | 52% | 1038.6 hPa | 0 mm | - | - | - |
| 1777923022 | 18.89° C | 48% | 1038.4 hPa | 0 mm | - | - | - |
| 1777922421 | 19.44° C | 45% | 1038.3 hPa | 0 mm | - | - | - |
| 1777921821 | 19.44° C | 44% | 1038.2 hPa | 0 mm | - | - | - |
| 1777921222 | 19.44° C | 50% | 1037.9 hPa | 0 mm | - | - | - |
| 1777920621 | 19.44° C | 51% | 1038.1 hPa | 0 mm | - | - | - |
| 1777920021 | 19.44° C | 51% | 1037.9 hPa | 0 mm | - | - | - |
| 1777919421 | 20° C | 50% | 1037.9 hPa | 0 mm | - | - | - |
| 1777918821 | 20° C | 50% | 1038 hPa | 0 mm | - | - | - |
| 1777918221 | 20.56° C | 48% | 1037.9 hPa | 0 mm | - | - | - |
| 1777917621 | 21.11° C | 46% | 1037.9 hPa | 0 mm | - | - | - |
| 1777917020 | 21.11° C | 44% | 1037.7 hPa | 0 mm | - | - | - |
| 1777916421 | 21.67° C | 43% | 1037.7 hPa | 0 mm | - | - | - |
| 1777915822 | 21.67° C | 43% | 1037.5 hPa | 0 mm | - | - | - |
| 1777915221 | 21.67° C | 43% | 1037.6 hPa | 0 mm | - | - | - |
| 1777914620 | 22.22° C | 43% | 1037.5 hPa | 0 mm | - | - | - |
| 1777914021 | 21.67° C | 44% | 1037.6 hPa | 0 mm | - | - | - |
| 1777913420 | 21.67° C | 44% | 1037.6 hPa | 0 mm | - | - | - |
| 1777912821 | 21.67° C | 43% | 1037.6 hPa | 0 mm | - | - | - |
| 1777912221 | 21.67° C | 43% | 1037.7 hPa | 0 mm | - | - | - |
* Rain latest hour (hover to see other rain measurements)
** Current wind speed in m/s (hover to see current wind gust speed)